Minot Air Force Base
KMIB : now visible

Airfield :











YOU CAN JOIN US ON...

 
LOGIN :

Register | Disclaimer

   EN    FR    IT 

 









Legend :    VFR   Marginal VFR   IFR   Intensive IFR   Very Intensive IFR
Visi :
Ceiling :
>= 8 km
>= 3000ft
5 to 8 km
1000 to 3000 ft
1500m to 5 km
500 to 1000 ft
800 to 1500m
200 to 500 ft
< 800m
< 200 ft
Symbols :   Thunderstorms  Fog  Heavy snow  Heavy precipitations  Wind > 20 kt






- Airport Elevation : 1667 ft


KMIB - Minot Air Force Base

CURRENT METAR :
  • 170055Z 29019G27KT 10SM SCT060 19/07 A2966 RMK AO2A PK WND 28036/18 SLP048 T01900065

EXPIRED METARs :
  • 162355Z 29023G29KT 10SM FEW065 20/06 A2964 RMK AO2A PK WND 28039/03 SLP041 T01960063 10210 20177 52011
  • 162255Z 30023G34KT 10SM FEW060 20/06 A2963 RMK AO2A PK WND 28040/45 SLP037 T02000063
  • 162155Z 29023G30KT 10SM SCT060 20/07 A2962 RMK AO2A PK WND 28040/12 SLP033 T01980069
  • 162055Z AUTO 29026G36KT 10SM CLR 21/07 A2961 RMK AO2 PK WND 28043/31 SLP028 T02050068 55001

Expired Forecast.
KZMP FIR / North America



MET'MAP, your aeronautical weather chart ! - Copyright ORBIFLY December 2007 - Disclaimer

ORBIFLY MET'MAP TEAM :

Programming & Development : Alexandra Zaïnal
Original concept : Baudouin d'Aumeries
Technical & hardware support : Manuel Goepfert
Assistance : Marc-Olivier Méhu




SOURCES & CREDITS :

   NOAA       Earth
Advisory